sensor_id;sensor_type;location;lat;lon;timestamp;pressure;altitude;pressure_sealevel;temperature;humidity
68508;BME280;55510;49.560;19.090;2023-04-07T00:00:59;96373.13;;;-1.25;100.00
68508;BME280;55510;49.560;19.090;2023-04-07T00:04:00;96370.53;;;-1.25;100.00
68508;BME280;55510;49.560;19.090;2023-04-07T00:07:00;96367.72;;;-1.24;100.00
68508;BME280;55510;49.560;19.090;2023-04-07T00:10:01;96368.56;;;-1.23;100.00
68508;BME280;55510;49.560;19.090;2023-04-07T00:13:02;96372.16;;;-1.24;100.00
68508;BME280;55510;49.560;19.090;2023-04-07T00:16:03;96369.69;;;-1.26;100.00
68508;BME280;55510;49.560;19.090;2023-04-07T00:19:03;96369.06;;;-1.28;100.00
68508;BME280;55510;49.560;19.090;2023-04-07T00:22:04;96363.69;;;-1.26;100.00
68508;BME280;55510;49.560;19.090;2023-04-07T00:25:05;96360.09;;;-1.25;100.00
68508;BME280;55510;49.560;19.090;2023-04-07T00:28:06;96362.69;;;-1.25;100.00
68508;BME280;55510;49.560;19.090;2023-04-07T00:31:07;96367.28;;;-1.27;100.00
68508;BME280;55510;49.560;19.090;2023-04-07T00:34:07;96361.06;;;-1.26;100.00
68508;BME280;55510;49.560;19.090;2023-04-07T00:37:08;96359.25;;;-1.26;100.00
68508;BME280;55510;49.560;19.090;2023-04-07T00:40:09;96357.28;;;-1.24;100.00
68508;BME280;55510;49.560;19.090;2023-04-07T00:43:09;96358.13;;;-1.23;100.00
68508;BME280;55510;49.560;19.090;2023-04-07T00:46:10;96353.88;;;-1.24;100.00
68508;BME280;55510;49.560;19.090;2023-04-07T00:49:11;96361.72;;;-1.24;100.00
68508;BME280;55510;49.560;19.090;2023-04-07T00:52:13;96363.69;;;-1.26;100.00
68508;BME280;55510;49.560;19.090;2023-04-07T00:55:13;96354.22;;;-1.27;100.00
68508;BME280;55510;49.560;19.090;2023-04-07T00:58:15;96353.25;;;-1.26;100.00
68508;BME280;55510;49.560;19.090;2023-04-07T01:01:21;96340.97;;;-1.26;100.00
68508;BME280;55510;49.560;19.090;2023-04-07T01:04:32;96332.34;;;-1.26;100.00
68508;BME280;55510;49.560;19.090;2023-04-07T01:07:43;96332.34;;;-1.26;100.00
68508;BME280;55510;49.560;19.090;2023-04-07T01:14:46;96316.69;;;-1.26;100.00
68508;BME280;55510;49.560;19.090;2023-04-07T01:17:56;96315.06;;;-1.27;100.00
68508;BME280;55510;49.560;19.090;2023-04-07T01:21:14;96321.06;;;-1.27;100.00
68508;BME280;55510;49.560;19.090;2023-04-07T01:31:11;96320.22;;;-1.19;100.00
68508;BME280;55510;49.560;19.090;2023-04-07T01:34:13;96320.22;;;-1.19;100.00
68508;BME280;55510;49.560;19.090;2023-04-07T01:37:15;96319.59;;;-1.21;100.00
68508;BME280;55510;49.560;19.090;2023-04-07T01:40:17;96312.41;;;-1.19;100.00
68508;BME280;55510;49.560;19.090;2023-04-07T01:43:19;96320.22;;;-1.19;100.00
68508;BME280;55510;49.560;19.090;2023-04-07T01:46:21;96310.13;;;-1.22;100.00
68508;BME280;55510;49.560;19.090;2023-04-07T01:49:22;96306.69;;;-1.23;100.00
68508;BME280;55510;49.560;19.090;2023-04-07T01:52:26;96300.66;;;-1.23;100.00
68508;BME280;55510;49.560;19.090;2023-04-07T01:55:27;96305.25;;;-1.25;100.00
68508;BME280;55510;49.560;19.090;2023-04-07T01:58:28;96313.09;;;-1.25;100.00
68508;BME280;55510;49.560;19.090;2023-04-07T02:01:28;96314.72;;;-1.24;100.00
68508;BME280;55510;49.560;19.090;2023-04-07T02:04:34;96307.53;;;-1.22;100.00
68508;BME280;55510;49.560;19.090;2023-04-07T02:11:17;96307.53;;;-1.22;100.00
68508;BME280;55510;49.560;19.090;2023-04-07T02:14:19;96315.34;;;-1.22;100.00
68508;BME280;55510;49.560;19.090;2023-04-07T02:17:26;96302.28;;;-1.22;100.00
68508;BME280;55510;49.560;19.090;2023-04-07T02:20:28;96308.31;;;-1.22;100.00
68508;BME280;55510;49.560;19.090;2023-04-07T02:23:30;96298.69;;;-1.21;100.00
68508;BME280;55510;49.560;19.090;2023-04-07T02:26:36;96301.31;;;-1.21;100.00
68508;BME280;55510;49.560;19.090;2023-04-07T02:29:37;96300.31;;;-1.20;100.00
68508;BME280;55510;49.560;19.090;2023-04-07T02:32:37;96290.69;;;-1.20;100.00
68508;BME280;55510;49.560;19.090;2023-04-07T02:35:38;96281.41;;;-1.22;100.00
68508;BME280;55510;49.560;19.090;2023-04-07T02:38:39;96279.78;;;-1.23;100.00
68508;BME280;55510;49.560;19.090;2023-04-07T02:41:40;96279.78;;;-1.23;100.00
68508;BME280;55510;49.560;19.090;2023-04-07T02:44:40;96289.25;;;-1.22;100.00
68508;BME280;55510;49.560;19.090;2023-04-07T02:47:41;96286.63;;;-1.22;100.00
68508;BME280;55510;49.560;19.090;2023-04-07T02:50:41;96281.41;;;-1.22;100.00
68508;BME280;55510;49.560;19.090;2023-04-07T02:53:42;96282.84;;;-1.20;100.00
68508;BME280;55510;49.560;19.090;2023-04-07T02:56:43;96284.31;;;-1.17;100.00
68508;BME280;55510;49.560;19.090;2023-04-07T02:59:44;96290.53;;;-1.18;100.00
68508;BME280;55510;49.560;19.090;2023-04-07T03:02:44;96286.72;;;-1.15;100.00
68508;BME280;55510;49.560;19.090;2023-04-07T03:05:45;96286.28;;;-1.19;100.00
68508;BME280;55510;49.560;19.090;2023-04-07T03:08:45;96280.41;;;-1.21;100.00
68508;BME280;55510;49.560;19.090;2023-04-07T03:11:46;96278.16;;;-1.24;100.00
68508;BME280;55510;49.560;19.090;2023-04-07T03:14:47;96279.78;;;-1.23;100.00
68508;BME280;55510;49.560;19.090;2023-04-07T03:17:48;96282.19;;;-1.22;100.00
68508;BME280;55510;49.560;19.090;2023-04-07T03:20:48;96283.03;;;-1.21;100.00
68508;BME280;55510;49.560;19.090;2023-04-07T03:23:49;96283.03;;;-1.21;100.00
68508;BME280;55510;49.560;19.090;2023-04-07T03:26:50;96283.03;;;-1.21;100.00
68508;BME280;55510;49.560;19.090;2023-04-07T03:29:51;96288.75;;;-1.26;100.00
68508;BME280;55510;49.560;19.090;2023-04-07T03:32:52;96290.22;;;-1.23;100.00
68508;BME280;55510;49.560;19.090;2023-04-07T03:35:52;96291.03;;;-1.23;100.00
68508;BME280;55510;49.560;19.090;2023-04-07T03:38:53;96290.88;;;-1.21;100.00
68508;BME280;55510;49.560;19.090;2023-04-07T03:41:54;96293.47;;;-1.21;100.00
68508;BME280;55510;49.560;19.090;2023-04-07T03:44:55;96293.47;;;-1.21;100.00
68508;BME280;55510;49.560;19.090;2023-04-07T03:47:56;96295.09;;;-1.20;100.00
68508;BME280;55510;49.560;19.090;2023-04-07T03:50:56;96293.13;;;-1.18;100.00
68508;BME280;55510;49.560;19.090;2023-04-07T03:53:57;96293.94;;;-1.18;100.00
68508;BME280;55510;49.560;19.090;2023-04-07T03:56:58;96291.97;;;-1.15;100.00
68508;BME280;55510;49.560;19.090;2023-04-07T03:59:58;96292.78;;;-1.15;100.00
68508;BME280;55510;49.560;19.090;2023-04-07T04:02:59;96295.56;;;-1.17;100.00
68508;BME280;55510;49.560;19.090;2023-04-07T04:06:00;96292.59;;;-1.13;100.00
68508;BME280;55510;49.560;19.090;2023-04-07T04:09:01;96294.06;;;-1.11;100.00
68508;BME280;55510;49.560;19.090;2023-04-07T04:12:02;96296.53;;;-1.09;100.00
68508;BME280;55510;49.560;19.090;2023-04-07T04:15:03;96302.53;;;-1.09;100.00
68508;BME280;55510;49.560;19.090;2023-04-07T04:18:04;96311.22;;;-1.08;100.00
68508;BME280;55510;49.560;19.090;2023-04-07T04:21:06;96306.78;;;-1.08;100.00
68508;BME280;55510;49.560;19.090;2023-04-07T04:24:07;96303.81;;;-1.05;100.00
68508;BME280;55510;49.560;19.090;2023-04-07T04:27:08;96302.53;;;-1.09;100.00
68508;BME280;55510;49.560;19.090;2023-04-07T04:30:09;96309.41;;;-1.08;100.00
68508;BME280;55510;49.560;19.090;2023-04-07T04:33:10;96303.38;;;-1.08;100.00
68508;BME280;55510;49.560;19.090;2023-04-07T04:36:11;96302.38;;;-1.07;100.00
68508;BME280;55510;49.560;19.090;2023-04-07T04:39:11;96300.56;;;-1.07;100.00
68508;BME280;55510;49.560;19.090;2023-04-07T04:42:12;96295.00;;;-1.04;100.00
68508;BME280;55510;49.560;19.090;2023-04-07T04:45:13;96299.88;;;-1.00;100.00
68508;BME280;55510;49.560;19.090;2023-04-07T04:48:14;96292.88;;;-1.00;100.00
68508;BME280;55510;49.560;19.090;2023-04-07T04:51:14;96291.69;;;-0.97;100.00
68508;BME280;55510;49.560;19.090;2023-04-07T04:54:15;96296.56;;;-0.94;100.00
68508;BME280;55510;49.560;19.090;2023-04-07T04:57:16;96298.03;;;-0.92;100.00
68508;BME280;55510;49.560;19.090;2023-04-07T05:00:17;96298.84;;;-0.91;100.00
68508;BME280;55510;49.560;19.090;2023-04-07T05:03:18;96308.63;;;-0.85;100.00
68508;BME280;55510;49.560;19.090;2023-04-07T05:06:18;96304.50;;;-0.79;100.00
68508;BME280;55510;49.560;19.090;2023-04-07T05:09:19;96305.94;;;-0.77;100.00
68508;BME280;55510;49.560;19.090;2023-04-07T05:12:20;96296.59;;;-0.71;100.00
68508;BME280;55510;49.560;19.090;2023-04-07T05:15:21;96302.13;;;-0.66;100.00
68508;BME280;55510;49.560;19.090;2023-04-07T05:18:22;96304.56;;;-0.64;100.00
68508;BME280;55510;49.560;19.090;2023-04-07T05:21:22;96297.63;;;-0.57;100.00
68508;BME280;55510;49.560;19.090;2023-04-07T05:24:28;96296.28;;;-0.53;100.00
68508;BME280;55510;49.560;19.090;2023-04-07T05:27:28;96297.22;;;-0.46;100.00
68508;BME280;55510;49.560;19.090;2023-04-07T05:30:29;96304.06;;;-0.45;100.00
68508;BME280;55510;49.560;19.090;2023-04-07T05:33:30;96308.63;;;-0.38;100.00
68508;BME280;55510;49.560;19.090;2023-04-07T05:36:32;96307.44;;;-0.36;100.00
68508;BME280;55510;49.560;19.090;2023-04-07T05:39:33;96310.34;;;-0.31;100.00
68508;BME280;55510;49.560;19.090;2023-04-07T05:42:43;96315.56;;;-0.31;100.00
68508;BME280;55510;49.560;19.090;2023-04-07T05:45:43;96314.78;;;-0.31;100.00
68508;BME280;55510;49.560;19.090;2023-04-07T05:48:44;96308.91;;;-0.33;100.00
68508;BME280;55510;49.560;19.090;2023-04-07T05:51:45;96312.44;;;-0.26;100.00
68508;BME280;55510;49.560;19.090;2023-04-07T05:54:46;96296.03;;;-0.20;100.00
68508;BME280;55510;49.560;19.090;2023-04-07T05:57:47;96300.66;;;-0.07;100.00
68508;BME280;55510;49.560;19.090;2023-04-07T06:00:49;96301.03;;;0.05;100.00
68508;BME280;55510;49.560;19.090;2023-04-07T06:03:49;96317.09;;;0.17;100.00
68508;BME280;55510;49.560;19.090;2023-04-07T06:06:53;96319.19;;;0.22;99.54
68508;BME280;55510;49.560;19.090;2023-04-07T06:09:54;96317.00;;;0.40;99.66
68508;BME280;55510;49.560;19.090;2023-04-07T06:12:55;96313.34;;;0.50;98.35
68508;BME280;55510;49.560;19.090;2023-04-07T06:15:56;96310.78;;;0.56;98.05
68508;BME280;55510;49.560;19.090;2023-04-07T06:18:56;96317.47;;;0.74;98.59
68508;BME280;55510;49.560;19.090;2023-04-07T06:21:57;96304.44;;;0.81;97.23
68508;BME280;55510;49.560;19.090;2023-04-07T06:24:58;96308.22;;;0.93;96.48
68508;BME280;55510;49.560;19.090;2023-04-07T06:27:58;96304.53;;;1.09;95.71
68508;BME280;55510;49.560;19.090;2023-04-07T06:31:00;96297.88;;;1.28;95.07
68508;BME280;55510;49.560;19.090;2023-04-07T06:34:01;96305.50;;;1.23;92.62
68508;BME280;55510;49.560;19.090;2023-04-07T06:37:02;96307.00;;;1.11;93.02
68508;BME280;55510;49.560;19.090;2023-04-07T06:40:03;96309.31;;;1.21;92.98
68508;BME280;55510;49.560;19.090;2023-04-07T06:43:04;96308.31;;;1.22;93.18
68508;BME280;55510;49.560;19.090;2023-04-07T06:46:05;96308.75;;;1.25;92.90
68508;BME280;55510;49.560;19.090;2023-04-07T06:49:06;96316.59;;;1.25;92.07
68508;BME280;55510;49.560;19.090;2023-04-07T06:52:06;96319.47;;;1.09;92.20
68508;BME280;55510;49.560;19.090;2023-04-07T06:55:07;96331.44;;;0.96;92.27
68508;BME280;55510;49.560;19.090;2023-04-07T06:58:08;96332.00;;;0.77;92.53
68508;BME280;55510;49.560;19.090;2023-04-07T07:01:09;96329.09;;;0.71;93.27
68508;BME280;55510;49.560;19.090;2023-04-07T07:04:10;96322.06;;;0.72;93.55
68508;BME280;55510;49.560;19.090;2023-04-07T07:07:11;96317.00;;;0.70;94.25
68508;BME280;55510;49.560;19.090;2023-04-07T07:10:11;96312.75;;;0.69;93.44
68508;BME280;55510;49.560;19.090;2023-04-07T07:13:12;96320.44;;;0.71;93.13
68508;BME280;55510;49.560;19.090;2023-04-07T07:16:13;96311.34;;;0.67;93.39
68508;BME280;55510;49.560;19.090;2023-04-07T07:19:14;96322.34;;;0.77;94.57
68508;BME280;55510;49.560;19.090;2023-04-07T07:22:14;96315.63;;;0.90;94.63
68508;BME280;55510;49.560;19.090;2023-04-07T07:25:15;96316.59;;;1.04;93.92
68508;BME280;55510;49.560;19.090;2023-04-07T07:28:16;96314.00;;;1.25;93.76
68508;BME280;55510;49.560;19.090;2023-04-07T07:31:18;96318.56;;;1.38;92.69
68508;BME280;55510;49.560;19.090;2023-04-07T07:34:18;96317.31;;;1.34;91.27
68508;BME280;55510;49.560;19.090;2023-04-07T07:37:20;96323.50;;;1.48;91.69
68508;BME280;55510;49.560;19.090;2023-04-07T07:40:20;96318.81;;;1.65;91.74
68508;BME280;55510;49.560;19.090;2023-04-07T07:43:21;96327.19;;;1.76;90.21
68508;BME280;55510;49.560;19.090;2023-04-07T07:46:22;96326.41;;;1.82;90.21
68508;BME280;55510;49.560;19.090;2023-04-07T07:49:25;96327.09;;;1.91;89.71
68508;BME280;55510;49.560;19.090;2023-04-07T07:52:26;96335.66;;;1.99;89.20
68508;BME280;55510;49.560;19.090;2023-04-07T07:55:27;96343.00;;;1.82;87.48
68508;BME280;55510;49.560;19.090;2023-04-07T07:58:27;96338.97;;;1.65;88.61
68508;BME280;55510;49.560;19.090;2023-04-07T08:01:28;96342.91;;;1.54;89.82
68508;BME280;55510;49.560;19.090;2023-04-07T08:04:28;96352.78;;;1.52;89.20
68508;BME280;55510;49.560;19.090;2023-04-07T08:07:29;96351.91;;;1.44;89.73
68508;BME280;55510;49.560;19.090;2023-04-07T08:10:30;96347.47;;;1.45;90.18
68508;BME280;55510;49.560;19.090;2023-04-07T08:13:31;96344.91;;;1.30;90.51
68508;BME280;55510;49.560;19.090;2023-04-07T08:16:31;96348.22;;;1.39;90.48
68508;BME280;55510;49.560;19.090;2023-04-07T08:19:32;96342.00;;;1.40;90.35
68508;BME280;55510;49.560;19.090;2023-04-07T08:22:33;96349.84;;;1.40;90.23
68508;BME280;55510;49.560;19.090;2023-04-07T08:25:34;96343.03;;;1.45;90.15
68508;BME280;55510;49.560;19.090;2023-04-07T08:28:34;96337.00;;;1.45;89.40
68508;BME280;55510;49.560;19.090;2023-04-07T08:31:35;96339.34;;;1.62;90.12
68508;BME280;55510;49.560;19.090;2023-04-07T08:34:36;96336.66;;;1.77;89.52
68508;BME280;55510;49.560;19.090;2023-04-07T08:37:38;96341.09;;;1.76;88.61
68508;BME280;55510;49.560;19.090;2023-04-07T08:40:39;96330.25;;;1.79;88.50
68508;BME280;55510;49.560;19.090;2023-04-07T08:43:41;96335.50;;;1.79;88.34
68508;BME280;55510;49.560;19.090;2023-04-07T08:46:43;96325.34;;;1.76;87.89
68508;BME280;55510;49.560;19.090;2023-04-07T08:49:47;96342.75;;;1.77;87.77
68508;BME280;55510;49.560;19.090;2023-04-07T08:52:55;96338.91;;;1.80;87.72
68508;BME280;55510;49.560;19.090;2023-04-07T08:55:57;96335.22;;;1.74;88.49
68508;BME280;55510;49.560;19.090;2023-04-07T08:58:58;96336.22;;;1.73;88.42
68508;BME280;55510;49.560;19.090;2023-04-07T09:01:59;96333.22;;;1.76;88.72
68508;BME280;55510;49.560;19.090;2023-04-07T09:05:03;96321.22;;;1.88;88.84
68508;BME280;55510;49.560;19.090;2023-04-07T09:08:04;96317.09;;;2.01;87.86
68508;BME280;55510;49.560;19.090;2023-04-07T09:11:06;96318.38;;;2.12;87.84
68508;BME280;55510;49.560;19.090;2023-04-07T09:14:06;96323.72;;;2.25;87.37
68508;BME280;55510;49.560;19.090;2023-04-07T09:17:07;96318.75;;;2.37;86.67
68508;BME280;55510;49.560;19.090;2023-04-07T09:20:08;96311.09;;;2.42;85.55
68508;BME280;55510;49.560;19.090;2023-04-07T09:23:26;96310.88;;;2.37;83.67
68508;BME280;55510;49.560;19.090;2023-04-07T09:26:28;96309.66;;;2.40;85.11
68508;BME280;55510;49.560;19.090;2023-04-07T09:29:33;96318.31;;;2.34;84.56
68508;BME280;55510;49.560;19.090;2023-04-07T09:32:35;96316.50;;;2.34;84.87
68508;BME280;55510;49.560;19.090;2023-04-07T09:35:50;96311.59;;;2.24;84.02
68508;BME280;55510;49.560;19.090;2023-04-07T09:38:52;96318.38;;;2.12;84.87
68508;BME280;55510;49.560;19.090;2023-04-07T09:41:53;96314.13;;;2.11;85.89
68508;BME280;55510;49.560;19.090;2023-04-07T09:44:54;96324.44;;;2.12;85.83
68508;BME280;55510;49.560;19.090;2023-04-07T09:47:55;96326.34;;;2.25;86.36
68508;BME280;55510;49.560;19.090;2023-04-07T09:51:10;96318.91;;;2.29;85.15
68508;BME280;55510;49.560;19.090;2023-04-07T09:54:12;96318.22;;;2.20;86.14
68508;BME280;55510;49.560;19.090;2023-04-07T09:57:13;96324.38;;;2.34;86.35
68508;BME280;55510;49.560;19.090;2023-04-07T10:00:14;96320.81;;;2.49;86.38
68508;BME280;55510;49.560;19.090;2023-04-07T10:03:15;96315.84;;;2.60;86.64
68508;BME280;55510;49.560;19.090;2023-04-07T10:06:16;96314.00;;;2.61;85.71
68508;BME280;55510;49.560;19.090;2023-04-07T10:09:17;96323.44;;;2.49;84.56
68508;BME280;55510;49.560;19.090;2023-04-07T10:12:18;96324.28;;;2.56;85.61
68508;BME280;55510;49.560;19.090;2023-04-07T10:15:19;96324.28;;;2.49;85.37
68508;BME280;55510;49.560;19.090;2023-04-07T10:18:21;96319.34;;;2.39;85.77
68508;BME280;55510;49.560;19.090;2023-04-07T10:21:23;96315.34;;;2.43;86.77
68508;BME280;55510;49.560;19.090;2023-04-07T10:25:01;96313.94;;;2.47;85.72
68508;BME280;55510;49.560;19.090;2023-04-07T10:28:07;96312.56;;;2.52;87.07
68508;BME280;55510;49.560;19.090;2023-04-07T10:31:09;96309.75;;;2.53;87.53
68508;BME280;55510;49.560;19.090;2023-04-07T10:34:10;96311.78;;;2.58;87.82
68508;BME280;55510;49.560;19.090;2023-04-07T10:37:13;96317.41;;;2.55;88.72
68508;BME280;55510;49.560;19.090;2023-04-07T10:43:36;96318.25;;;2.62;89.44
68508;BME280;55510;49.560;19.090;2023-04-07T10:50:14;96313.09;;;2.75;89.86
68508;BME280;55510;49.560;19.090;2023-04-07T10:53:15;96319.97;;;2.77;90.16
68508;BME280;55510;49.560;19.090;2023-04-07T10:56:16;96320.69;;;2.64;88.97
68508;BME280;55510;49.560;19.090;2023-04-07T10:59:17;96324.13;;;2.57;90.55
68508;BME280;55510;49.560;19.090;2023-04-07T11:05:22;96325.34;;;2.26;90.94
68508;BME280;55510;49.560;19.090;2023-04-07T11:08:33;96320.78;;;2.13;90.78
68508;BME280;55510;49.560;19.090;2023-04-07T11:11:36;96326.44;;;2.10;91.64
68508;BME280;55510;49.560;19.090;2023-04-07T11:14:38;96329.25;;;2.09;91.88
68508;BME280;55510;49.560;19.090;2023-04-07T11:17:39;96331.97;;;1.94;90.66
68508;BME280;55510;49.560;19.090;2023-04-07T11:20:54;96333.03;;;1.78;91.39
68508;BME280;55510;49.560;19.090;2023-04-07T11:23:55;96327.50;;;1.66;92.10
68508;BME280;55510;49.560;19.090;2023-04-07T11:26:56;96327.16;;;1.54;93.04
68508;BME280;55510;49.560;19.090;2023-04-07T11:29:57;96331.00;;;1.51;93.66
68508;BME280;55510;49.560;19.090;2023-04-07T11:32:58;96323.13;;;1.51;94.65
68508;BME280;55510;49.560;19.090;2023-04-07T11:36:01;96314.63;;;1.49;94.50
68508;BME280;55510;49.560;19.090;2023-04-07T11:39:02;96321.69;;;1.49;94.86
68508;BME280;55510;49.560;19.090;2023-04-07T11:42:03;96322.00;;;1.61;94.88
68508;BME280;55510;49.560;19.090;2023-04-07T11:45:04;96316.25;;;1.72;94.73
68508;BME280;55510;49.560;19.090;2023-04-07T11:48:24;96317.38;;;1.84;93.96
68508;BME280;55510;49.560;19.090;2023-04-07T11:51:25;96317.22;;;1.93;94.35
68508;BME280;55510;49.560;19.090;2023-04-07T11:54:47;96310.28;;;2.13;93.80
68508;BME280;55510;49.560;19.090;2023-04-07T11:57:51;96314.03;;;2.26;92.84
68508;BME280;55510;49.560;19.090;2023-04-07T12:00:58;96314.66;;;2.28;91.92
68508;BME280;55510;49.560;19.090;2023-04-07T12:04:03;96308.84;;;2.39;92.68
68508;BME280;55510;49.560;19.090;2023-04-07T12:07:08;96307.69;;;2.49;92.33
68508;BME280;55510;49.560;19.090;2023-04-07T12:10:20;96306.50;;;2.51;92.05
68508;BME280;55510;49.560;19.090;2023-04-07T12:13:21;96303.16;;;2.36;91.36
68508;BME280;55510;49.560;19.090;2023-04-07T12:16:22;96306.16;;;2.26;92.25
68508;BME280;55510;49.560;19.090;2023-04-07T12:19:25;96300.22;;;2.17;92.46
68508;BME280;55510;49.560;19.090;2023-04-07T12:22:29;96300.88;;;1.97;92.22
68508;BME280;55510;49.560;19.090;2023-04-07T12:25:30;96298.78;;;1.86;93.45
68508;BME280;55510;49.560;19.090;2023-04-07T12:28:30;96296.06;;;1.72;93.64
68508;BME280;55510;49.560;19.090;2023-04-07T12:31:31;96300.09;;;1.68;94.62
68508;BME280;55510;49.560;19.090;2023-04-07T12:34:32;96300.47;;;1.65;94.33
68508;BME280;55510;49.560;19.090;2023-04-07T12:37:34;96298.50;;;1.74;95.12
68508;BME280;55510;49.560;19.090;2023-04-07T12:40:35;96294.06;;;1.74;94.41
68508;BME280;55510;49.560;19.090;2023-04-07T12:43:37;96298.31;;;1.76;95.15
68508;BME280;55510;49.560;19.090;2023-04-07T12:46:37;96304.00;;;1.79;95.16
68508;BME280;55510;49.560;19.090;2023-04-07T12:49:38;96301.56;;;1.78;94.53
68508;BME280;55510;49.560;19.090;2023-04-07T12:52:39;96303.50;;;1.91;95.37
68508;BME280;55510;49.560;19.090;2023-04-07T12:55:40;96297.31;;;2.05;95.27
68508;BME280;55510;49.560;19.090;2023-04-07T12:58:41;96307.91;;;2.18;95.45
68508;BME280;55510;49.560;19.090;2023-04-07T13:01:42;96307.53;;;2.22;95.17
68508;BME280;55510;49.560;19.090;2023-04-07T13:04:43;96301.69;;;2.26;94.86
68508;BME280;55510;49.560;19.090;2023-04-07T13:07:46;96303.41;;;2.06;95.28
68508;BME280;55510;49.560;19.090;2023-04-07T13:10:46;96305.66;;;2.15;95.58
68508;BME280;55510;49.560;19.090;2023-04-07T13:13:47;96298.66;;;2.23;95.55
68508;BME280;55510;49.560;19.090;2023-04-07T13:16:48;96304.25;;;2.13;95.27
68508;BME280;55510;49.560;19.090;2023-04-07T13:19:49;96306.34;;;2.24;96.41
68508;BME280;55510;49.560;19.090;2023-04-07T13:22:49;96309.81;;;2.31;96.22
68508;BME280;55510;49.560;19.090;2023-04-07T13:25:50;96308.66;;;2.41;96.62
68508;BME280;55510;49.560;19.090;2023-04-07T13:28:51;96317.56;;;2.46;96.28
68508;BME280;55510;49.560;19.090;2023-04-07T13:31:52;96308.47;;;2.42;95.80
68508;BME280;55510;49.560;19.090;2023-04-07T13:34:53;96316.00;;;2.52;96.06
68508;BME280;55510;49.560;19.090;2023-04-07T13:37:53;96318.41;;;2.54;96.10
68508;BME280;55510;49.560;19.090;2023-04-07T13:40:54;96317.81;;;2.52;96.94
68508;BME280;55510;49.560;19.090;2023-04-07T13:43:56;96313.56;;;2.51;96.71
68508;BME280;55510;49.560;19.090;2023-04-07T13:46:57;96307.69;;;2.49;96.95
68508;BME280;55510;49.560;19.090;2023-04-07T13:50:01;96306.69;;;2.50;97.16
68508;BME280;55510;49.560;19.090;2023-04-07T13:53:02;96307.06;;;2.46;96.90
68508;BME280;55510;49.560;19.090;2023-04-07T13:56:04;96308.84;;;2.39;96.18
68508;BME280;55510;49.560;19.090;2023-04-07T13:59:08;96311.03;;;2.29;96.23
68508;BME280;55510;49.560;19.090;2023-04-07T14:02:08;96314.88;;;2.33;97.20
68508;BME280;55510;49.560;19.090;2023-04-07T14:05:09;96313.06;;;2.34;97.05
68508;BME280;55510;49.560;19.090;2023-04-07T14:08:10;96318.28;;;2.27;96.46
68508;BME280;55510;49.560;19.090;2023-04-07T14:11:11;96324.16;;;2.29;96.40
68508;BME280;55510;49.560;19.090;2023-04-07T14:14:11;96312.69;;;2.08;95.51
68508;BME280;55510;49.560;19.090;2023-04-07T14:17:12;96315.00;;;1.96;96.58
68508;BME280;55510;49.560;19.090;2023-04-07T14:20:13;96313.44;;;2.02;97.22
68508;BME280;55510;49.560;19.090;2023-04-07T14:23:13;96316.47;;;1.99;96.81
68508;BME280;55510;49.560;19.090;2023-04-07T14:26:14;96312.22;;;1.98;97.86
68508;BME280;55510;49.560;19.090;2023-04-07T14:29:15;96307.16;;;1.96;97.61
68508;BME280;55510;49.560;19.090;2023-04-07T14:32:16;96317.78;;;1.88;97.59
68508;BME280;55510;49.560;19.090;2023-04-07T14:35:17;96316.13;;;1.80;98.12
68508;BME280;55510;49.560;19.090;2023-04-07T14:38:17;96317.69;;;1.74;98.51
68508;BME280;55510;49.560;19.090;2023-04-07T14:41:18;96326.56;;;1.73;98.88
68508;BME280;55510;49.560;19.090;2023-04-07T14:44:19;96312.81;;;1.71;99.69
68508;BME280;55510;49.560;19.090;2023-04-07T14:47:20;96315.63;;;1.70;100.00
68508;BME280;55510;49.560;19.090;2023-04-07T14:50:21;96319.25;;;1.69;99.79
68508;BME280;55510;49.560;19.090;2023-04-07T14:53:23;96311.34;;;1.62;99.43
68508;BME280;55510;49.560;19.090;2023-04-07T14:56:23;96318.13;;;1.56;100.00
68508;BME280;55510;49.560;19.090;2023-04-07T14:59:24;96323.13;;;1.51;100.00
68508;BME280;55510;49.560;19.090;2023-04-07T15:02:25;96318.81;;;1.43;99.86
68508;BME280;55510;49.560;19.090;2023-04-07T15:05:28;96322.19;;;1.37;100.00
68508;BME280;55510;49.560;19.090;2023-04-07T15:08:29;96325.38;;;1.33;100.00
68508;BME280;55510;49.560;19.090;2023-04-07T15:11:31;96335.41;;;1.29;100.00
68508;BME280;55510;49.560;19.090;2023-04-07T15:14:32;96337.78;;;1.24;100.00
68508;BME280;55510;49.560;19.090;2023-04-07T15:17:32;96338.94;;;1.21;100.00
68508;BME280;55510;49.560;19.090;2023-04-07T15:20:33;96330.84;;;1.16;100.00
68508;BME280;55510;49.560;19.090;2023-04-07T15:23:35;96338.63;;;1.09;100.00
68508;BME280;55510;49.560;19.090;2023-04-07T15:26:37;96339.19;;;1.05;100.00
68508;BME280;55510;49.560;19.090;2023-04-07T15:29:37;96343.97;;;1.01;100.00
68508;BME280;55510;49.560;19.090;2023-04-07T15:32:41;96343.97;;;1.01;100.00
68508;BME280;55510;49.560;19.090;2023-04-07T15:35:42;96343.34;;;0.99;100.00
68508;BME280;55510;49.560;19.090;2023-04-07T15:38:42;96343.09;;;0.94;100.00
68508;BME280;55510;49.560;19.090;2023-04-07T15:41:43;96342.66;;;0.90;100.00
68508;BME280;55510;49.560;19.090;2023-04-07T15:44:44;96344.00;;;0.86;100.00
68508;BME280;55510;49.560;19.090;2023-04-07T15:47:44;96353.03;;;0.83;100.00
68508;BME280;55510;49.560;19.090;2023-04-07T15:50:45;96355.84;;;0.82;100.00
68508;BME280;55510;49.560;19.090;2023-04-07T15:53:46;96355.41;;;0.78;100.00
68508;BME280;55510;49.560;19.090;2023-04-07T15:56:47;96353.31;;;0.74;100.00
68508;BME280;55510;49.560;19.090;2023-04-07T15:59:47;96346.81;;;0.69;100.00
68508;BME280;55510;49.560;19.090;2023-04-07T16:02:48;96359.28;;;0.67;100.00
68508;BME280;55510;49.560;19.090;2023-04-07T16:05:49;96352.78;;;0.63;100.00
68508;BME280;55510;49.560;19.090;2023-04-07T16:08:50;96355.41;;;0.63;100.00
68508;BME280;55510;49.560;19.090;2023-04-07T16:11:51;96349.53;;;0.61;100.00
68508;BME280;55510;49.560;19.090;2023-04-07T16:14:51;96354.13;;;0.59;100.00
68508;BME280;55510;49.560;19.090;2023-04-07T16:17:52;96345.81;;;0.55;100.00